createdAt,value
2017-11-28T00:00:04.966Z,6.10
2017-11-28T00:01:09.463Z,6.10
2017-11-28T00:02:13.874Z,6.00
2017-11-28T00:03:18.285Z,6.10
2017-11-28T00:04:23.812Z,6.10
2017-11-28T00:05:28.266Z,6.10
2017-11-28T00:06:33.616Z,6.20
2017-11-28T00:07:37.950Z,6.20
2017-11-28T00:08:42.407Z,6.20
2017-11-28T00:09:47.120Z,6.20
2017-11-28T00:10:51.751Z,6.20
2017-11-28T00:11:56.274Z,6.20
2017-11-28T00:13:00.567Z,6.30
2017-11-28T00:14:06.769Z,6.20
2017-11-28T00:15:11.343Z,6.20
2017-11-28T00:16:15.973Z,6.30
2017-11-28T00:17:20.595Z,6.30
2017-11-28T00:18:25.527Z,6.30
2017-11-28T00:19:30.868Z,6.30
2017-11-28T00:20:35.504Z,6.30
2017-11-28T00:21:39.936Z,6.30
2017-11-28T00:22:45.412Z,6.40
2017-11-28T00:23:50.368Z,6.40
2017-11-28T00:24:55.536Z,6.40
2017-11-28T00:25:59.954Z,6.30
2017-11-28T00:27:05.265Z,6.30
2017-11-28T00:28:10.162Z,6.30
2017-11-28T00:29:15.966Z,6.30
2017-11-28T00:30:20.630Z,6.30
2017-11-28T00:31:25.609Z,6.30
2017-11-28T00:32:30.041Z,6.20
2017-11-28T00:33:34.515Z,6.20
2017-11-28T00:34:40.151Z,6.30
2017-11-28T00:35:44.913Z,6.30
2017-11-28T00:36:49.966Z,6.30
2017-11-28T00:37:54.756Z,6.30
2017-11-28T00:39:00.480Z,6.30
2017-11-28T00:40:05.408Z,6.30
2017-11-28T00:41:10.502Z,6.30
2017-11-28T00:42:15.613Z,6.30
2017-11-28T00:43:20.442Z,6.30
2017-11-28T00:44:25.065Z,6.30
2017-11-28T00:45:32.209Z,6.30
2017-11-28T00:46:36.711Z,6.30
2017-11-28T00:47:41.984Z,6.30
2017-11-28T00:48:46.728Z,6.30
2017-11-28T00:49:52.289Z,6.30
2017-11-28T00:50:57.340Z,6.30
2017-11-28T00:52:03.484Z,6.30
2017-11-28T00:53:09.332Z,6.20
2017-11-28T00:54:14.970Z,6.20
2017-11-28T00:55:19.540Z,6.20
2017-11-28T00:56:24.550Z,6.30
2017-11-28T00:57:29.415Z,6.30
2017-11-28T00:58:34.477Z,6.30
2017-11-28T00:59:39.479Z,6.30
2017-11-28T01:00:44.157Z,6.30
2017-11-28T01:01:49.183Z,6.30
2017-11-28T01:02:54.537Z,6.40
2017-11-28T01:04:00.685Z,6.40
2017-11-28T01:05:10.094Z,6.40
2017-11-28T01:06:15.360Z,6.40
2017-11-28T01:07:20.461Z,6.40
2017-11-28T01:08:25.658Z,6.40
2017-11-28T01:09:30.604Z,6.40
2017-11-28T01:10:36.077Z,6.40
2017-11-28T01:11:40.983Z,6.40
2017-11-28T01:12:45.831Z,6.40
2017-11-28T01:13:50.573Z,6.40
2017-11-28T01:14:55.086Z,6.40
2017-11-28T01:16:01.002Z,6.40
2017-11-28T01:17:10.229Z,6.40
2017-11-28T01:18:17.890Z,6.40
2017-11-28T01:19:22.802Z,6.40
2017-11-28T01:20:27.940Z,6.40
2017-11-28T01:21:32.733Z,6.40
2017-11-28T01:22:38.835Z,6.40
2017-11-28T01:23:43.541Z,6.40
2017-11-28T01:24:48.834Z,6.40
2017-11-28T01:25:53.968Z,6.50
2017-11-28T01:26:59.601Z,6.50
2017-11-28T01:28:04.431Z,6.40
2017-11-28T01:29:09.999Z,6.50
2017-11-28T01:30:14.955Z,6.50
2017-11-28T01:31:19.645Z,6.50
2017-11-28T01:32:24.985Z,6.50
2017-11-28T01:33:30.278Z,6.50
2017-11-28T01:34:35.384Z,6.50
2017-11-28T01:35:41.066Z,6.50
2017-11-28T01:36:45.832Z,6.50
2017-11-28T01:37:51.128Z,6.40
2017-11-28T01:38:55.739Z,6.50
2017-11-28T01:40:00.455Z,6.50
2017-11-28T01:41:05.343Z,6.50
2017-11-28T01:42:10.669Z,6.50
2017-11-28T01:43:15.690Z,6.50
2017-11-28T01:44:21.090Z,6.50
2017-11-28T01:45:26.019Z,6.50
2017-11-28T01:46:31.022Z,6.40
2017-11-28T01:47:35.750Z,6.40
2017-11-28T01:48:41.756Z,6.40
2017-11-28T01:49:46.412Z,6.40
2017-11-28T01:50:51.508Z,6.40
2017-11-28T01:51:56.226Z,6.40
2017-11-28T01:53:01.075Z,6.40
2017-11-28T01:54:06.748Z,6.40
2017-11-28T01:55:11.870Z,6.40
2017-11-28T01:56:17.354Z,6.50
2017-11-28T01:57:22.182Z,6.50
2017-11-28T01:58:27.735Z,6.40
2017-11-28T01:59:33.409Z,6.50
2017-11-28T02:00:37.959Z,6.50
2017-11-28T02:01:43.388Z,6.50
2017-11-28T02:02:48.754Z,6.50
2017-11-28T02:03:54.681Z,6.50
2017-11-28T02:05:00.315Z,6.50
2017-11-28T02:06:05.352Z,6.50
2017-11-28T02:07:10.762Z,6.50
2017-11-28T02:08:16.362Z,6.50
2017-11-28T02:09:21.551Z,6.50
2017-11-28T02:10:26.230Z,6.60
2017-11-28T02:11:31.148Z,6.60
2017-11-28T02:12:35.590Z,6.60
2017-11-28T02:13:40.384Z,6.60
2017-11-28T02:14:45.287Z,6.60
2017-11-28T02:15:49.862Z,6.60
2017-11-28T02:16:55.374Z,6.50
2017-11-28T02:18:00.034Z,6.50
2017-11-28T02:19:04.646Z,6.50
2017-11-28T02:20:09.133Z,6.60
2017-11-28T02:21:14.786Z,6.50
2017-11-28T02:22:19.906Z,6.50
2017-11-28T02:23:24.952Z,6.50
2017-11-28T02:24:29.792Z,6.60
2017-11-28T02:25:34.545Z,6.60
2017-11-28T02:26:39.487Z,6.60
2017-11-28T02:27:45.087Z,6.60
2017-11-28T02:28:51.018Z,6.60
2017-11-28T02:29:56.160Z,6.60
2017-11-28T02:31:00.946Z,6.60
2017-11-28T02:32:05.924Z,6.50
2017-11-28T02:33:11.641Z,6.60
2017-11-28T02:34:17.147Z,6.50
2017-11-28T02:35:21.917Z,6.50
2017-11-28T02:36:27.282Z,6.50
2017-11-28T02:37:32.053Z,6.50
2017-11-28T02:38:36.643Z,6.60
2017-11-28T02:39:41.123Z,6.60
2017-11-28T02:40:54.506Z,6.60
2017-11-28T02:41:59.344Z,6.60
2017-11-28T02:43:04.433Z,6.60
2017-11-28T02:44:10.126Z,6.60
2017-11-28T02:45:15.291Z,6.60
2017-11-28T02:46:19.918Z,6.60
2017-11-28T02:47:24.726Z,6.60
2017-11-28T02:48:29.517Z,6.60
2017-11-28T02:49:34.341Z,6.60
2017-11-28T02:50:39.278Z,6.60
2017-11-28T02:51:44.212Z,6.60
2017-11-28T02:52:52.675Z,6.60
2017-11-28T02:53:57.528Z,6.60
2017-11-28T02:55:02.486Z,6.60
2017-11-28T02:56:07.946Z,6.60
2017-11-28T02:57:12.619Z,6.60
2017-11-28T02:58:18.297Z,6.60
2017-11-28T02:59:23.187Z,6.60
2017-11-28T03:00:29.320Z,6.60
2017-11-28T03:01:34.438Z,6.60
2017-11-28T03:02:40.264Z,6.60
2017-11-28T03:03:45.272Z,6.60
2017-11-28T03:04:50.049Z,6.70
2017-11-28T03:05:54.966Z,6.70
2017-11-28T03:07:00.725Z,6.70
2017-11-28T03:08:05.456Z,6.70
2017-11-28T03:09:10.300Z,6.80
2017-11-28T03:10:14.957Z,6.70
2017-11-28T03:11:20.465Z,6.80
2017-11-28T03:12:25.241Z,6.70
2017-11-28T03:13:31.249Z,6.80
2017-11-28T03:14:36.285Z,6.80
2017-11-28T03:15:41.382Z,6.80
2017-11-28T03:16:45.887Z,6.80
2017-11-28T03:17:50.323Z,6.70
2017-11-28T03:18:55.291Z,6.70
2017-11-28T03:19:59.763Z,6.70
2017-11-28T03:21:04.197Z,6.70
2017-11-28T03:22:09.653Z,6.70
2017-11-28T03:23:14.520Z,6.70
2017-11-28T03:24:19.566Z,6.70
2017-11-28T03:25:25.109Z,6.70
2017-11-28T03:26:30.564Z,6.70
2017-11-28T03:27:34.998Z,6.70
2017-11-28T03:28:39.979Z,6.70
2017-11-28T03:29:44.857Z,6.70
2017-11-28T03:30:49.610Z,6.70
2017-11-28T03:31:55.146Z,6.70
2017-11-28T03:32:59.963Z,6.70
2017-11-28T03:34:04.566Z,6.70
2017-11-28T03:35:09.129Z,6.70
2017-11-28T03:36:16.604Z,6.70
2017-11-28T03:37:21.321Z,6.70
2017-11-28T03:38:26.220Z,6.60
2017-11-28T03:39:31.969Z,6.70
2017-11-28T03:40:36.927Z,6.70
2017-11-28T03:41:41.785Z,6.70
2017-11-28T03:42:46.620Z,6.60
2017-11-28T03:43:51.220Z,6.60
2017-11-28T03:44:56.125Z,6.60
2017-11-28T03:46:01.005Z,6.60
2017-11-28T03:47:06.062Z,6.60
2017-11-28T03:48:11.284Z,6.60
2017-11-28T03:49:16.599Z,6.60
2017-11-28T03:50:21.243Z,6.60
2017-11-28T03:51:26.808Z,6.70
2017-11-28T03:52:31.729Z,6.70
2017-11-28T03:53:37.108Z,6.60
2017-11-28T03:54:42.321Z,6.60
2017-11-28T03:55:47.145Z,6.60
2017-11-28T03:56:51.626Z,6.60
2017-11-28T03:57:56.906Z,6.60
2017-11-28T03:59:01.827Z,6.60
2017-11-28T04:00:07.565Z,6.60
2017-11-28T04:01:13.336Z,6.60
2017-11-28T04:02:18.678Z,6.50
2017-11-28T04:03:24.780Z,6.50
2017-11-28T04:04:30.079Z,6.50
2017-11-28T04:05:34.877Z,6.50
2017-11-28T04:06:39.374Z,6.50
2017-11-28T04:07:44.046Z,6.60
2017-11-28T04:08:48.577Z,6.60
2017-11-28T04:09:53.327Z,6.60
2017-11-28T04:10:58.081Z,6.60
2017-11-28T04:12:02.645Z,6.60
2017-11-28T04:13:07.151Z,6.60
2017-11-28T04:14:11.828Z,6.60
2017-11-28T04:15:16.501Z,6.60
2017-11-28T04:16:22.206Z,6.60
2017-11-28T04:17:27.447Z,6.60
2017-11-28T04:18:32.162Z,6.60
2017-11-28T04:19:37.024Z,6.60
2017-11-28T04:20:42.431Z,6.60
2017-11-28T04:21:47.381Z,6.60
2017-11-28T04:22:52.652Z,6.60
2017-11-28T04:23:57.946Z,6.60
2017-11-28T04:25:02.408Z,6.70
2017-11-28T04:26:06.869Z,6.70
2017-11-28T04:27:11.821Z,6.70
2017-11-28T04:28:16.263Z,6.70
2017-11-28T04:29:20.730Z,6.70
2017-11-28T04:30:25.477Z,6.70
2017-11-28T04:31:30.272Z,6.70
2017-11-28T04:32:35.643Z,6.70
2017-11-28T04:33:40.795Z,6.70
2017-11-28T04:34:46.108Z,6.80
2017-11-28T04:35:51.023Z,6.80
2017-11-28T04:36:57.624Z,6.80
2017-11-28T04:38:03.444Z,6.80
2017-11-28T04:39:09.055Z,6.80
2017-11-28T04:40:14.077Z,6.70
2017-11-28T04:41:18.978Z,6.80
2017-11-28T04:42:23.487Z,6.70
2017-11-28T04:43:28.394Z,6.70
2017-11-28T04:44:33.882Z,6.80
2017-11-28T04:45:38.335Z,6.80
2017-11-28T04:46:42.844Z,6.80
2017-11-28T04:47:47.735Z,6.80
2017-11-28T04:48:53.319Z,6.80
2017-11-28T04:49:58.179Z,6.80
2017-11-28T04:51:03.263Z,6.80
2017-11-28T04:52:07.725Z,6.80
2017-11-28T04:53:12.427Z,6.80
2017-11-28T04:54:17.483Z,6.80
2017-11-28T04:55:21.960Z,6.80
2017-11-28T04:56:26.721Z,6.80
2017-11-28T04:57:31.424Z,6.80
2017-11-28T04:58:37.045Z,6.80
2017-11-28T04:59:42.181Z,6.80
2017-11-28T05:00:47.422Z,6.70
2017-11-28T05:01:52.090Z,6.70
2017-11-28T05:02:56.514Z,6.70
2017-11-28T05:04:03.341Z,6.70
2017-11-28T05:05:08.034Z,6.70
2017-11-28T05:06:12.510Z,6.70
2017-11-28T05:07:17.067Z,6.70
2017-11-28T05:08:21.535Z,6.70
2017-11-28T05:09:26.212Z,6.70
2017-11-28T05:10:30.725Z,6.80
2017-11-28T05:11:35.177Z,6.80
2017-11-28T05:12:39.618Z,6.80
2017-11-28T05:13:44.130Z,6.80
2017-11-28T05:14:49.179Z,6.80
2017-11-28T05:15:53.723Z,6.70
2017-11-28T05:16:58.302Z,6.70
2017-11-28T05:18:03.013Z,6.70
2017-11-28T05:19:07.481Z,6.70
2017-11-28T05:20:12.872Z,6.70
2017-11-28T05:21:17.357Z,6.70
2017-11-28T05:22:21.817Z,6.70
2017-11-28T05:23:26.254Z,6.70
2017-11-28T05:24:31.996Z,6.70
2017-11-28T05:25:37.659Z,6.70
2017-11-28T05:26:43.201Z,6.70
2017-11-28T05:27:48.429Z,6.70
2017-11-28T05:28:53.699Z,6.70
2017-11-28T05:29:59.544Z,6.70
2017-11-28T05:31:05.725Z,6.80
2017-11-28T05:32:11.553Z,6.70
2017-11-28T05:33:16.894Z,6.70
2017-11-28T05:34:23.737Z,6.70
2017-11-28T05:35:28.399Z,6.70
2017-11-28T05:36:32.885Z,6.70
2017-11-28T05:37:38.119Z,6.60
2017-11-28T05:38:42.645Z,6.60
2017-11-28T05:39:47.094Z,6.60
2017-11-28T05:40:51.601Z,6.60
2017-11-28T05:41:56.303Z,6.50
2017-11-28T05:43:01.114Z,6.60
2017-11-28T05:44:06.007Z,6.50
2017-11-28T05:45:11.219Z,6.60
2017-11-28T05:46:16.498Z,6.60
2017-11-28T05:47:21.312Z,6.60
2017-11-28T05:48:25.807Z,6.60
2017-11-28T05:49:30.248Z,6.60
2017-11-28T05:50:34.689Z,6.70
2017-11-28T05:51:39.318Z,6.60
2017-11-28T05:52:43.770Z,6.60
2017-11-28T05:53:48.246Z,6.60
2017-11-28T05:54:53.470Z,6.60
2017-11-28T05:55:58.745Z,6.60
2017-11-28T05:57:03.324Z,6.60
2017-11-28T05:58:08.807Z,6.70
2017-11-28T05:59:13.297Z,6.70
2017-11-28T06:00:19.998Z,6.70
2017-11-28T06:01:26.035Z,6.70
2017-11-28T06:02:31.873Z,6.70
2017-11-28T06:03:36.377Z,6.70
2017-11-28T06:04:41.044Z,6.70
2017-11-28T06:05:46.806Z,6.70
2017-11-28T06:06:51.821Z,6.70
2017-11-28T06:07:56.376Z,6.60
2017-11-28T06:09:02.233Z,6.60
2017-11-28T06:10:10.533Z,6.60
2017-11-28T06:11:15.230Z,6.50
2017-11-28T06:12:23.997Z,6.50
2017-11-28T06:13:29.261Z,6.50
2017-11-28T06:14:33.738Z,6.50
2017-11-28T06:15:39.234Z,6.50
2017-11-28T06:16:43.956Z,6.50
2017-11-28T06:17:49.507Z,6.40
2017-11-28T06:18:54.762Z,6.40
2017-11-28T06:20:00.032Z,6.40
2017-11-28T06:21:04.570Z,6.40
2017-11-28T06:22:09.053Z,6.40
2017-11-28T06:23:13.600Z,6.40
2017-11-28T06:24:18.982Z,6.40
2017-11-28T06:25:24.449Z,6.40
2017-11-28T06:26:28.954Z,6.40
2017-11-28T06:27:33.470Z,6.30
2017-11-28T06:28:37.968Z,6.30
2017-11-28T06:29:42.509Z,6.30
2017-11-28T06:30:47.139Z,6.30
2017-11-28T06:31:51.630Z,6.30
2017-11-28T06:32:56.477Z,6.20
2017-11-28T06:34:02.362Z,6.20
2017-11-28T06:35:06.883Z,6.20
2017-11-28T06:36:11.369Z,6.20
2017-11-28T06:37:15.893Z,6.10
2017-11-28T06:38:20.369Z,6.10
2017-11-28T06:39:26.693Z,6.00
2017-11-28T06:40:31.134Z,6.00
2017-11-28T06:41:36.458Z,5.90
2017-11-28T06:42:41.931Z,5.90
2017-11-28T06:43:46.537Z,5.90
2017-11-28T06:44:51.170Z,5.80
2017-11-28T06:45:55.690Z,5.80
2017-11-28T06:47:00.282Z,5.80
2017-11-28T06:48:05.130Z,5.80
2017-11-28T06:49:09.836Z,5.70
2017-11-28T06:50:14.420Z,5.70
2017-11-28T06:51:18.925Z,5.70
2017-11-28T06:52:24.193Z,5.70
2017-11-28T06:53:28.689Z,5.70
2017-11-28T06:54:33.216Z,5.70
2017-11-28T06:55:37.942Z,5.70
2017-11-28T06:56:43.985Z,5.70
2017-11-28T06:57:48.440Z,5.70
2017-11-28T06:58:53.654Z,5.60
2017-11-28T06:59:58.140Z,5.60
2017-11-28T07:01:02.847Z,5.60
2017-11-28T07:02:07.324Z,5.60
2017-11-28T07:03:11.855Z,5.50
2017-11-28T07:04:16.277Z,5.60
2017-11-28T07:05:20.793Z,5.50
2017-11-28T07:06:25.485Z,5.50
2017-11-28T07:07:29.962Z,5.50
2017-11-28T07:08:35.200Z,5.50
2017-11-28T07:09:40.448Z,5.50
2017-11-28T07:10:45.068Z,5.50
2017-11-28T07:11:49.853Z,5.50
2017-11-28T07:12:55.277Z,5.50
2017-11-28T07:13:59.761Z,5.40
2017-11-28T07:15:04.312Z,5.50
2017-11-28T07:16:08.888Z,5.40
2017-11-28T07:17:13.933Z,5.50
2017-11-28T07:18:18.409Z,5.50
2017-11-28T07:19:22.888Z,5.40
2017-11-28T07:20:28.359Z,5.40
2017-11-28T07:21:32.857Z,5.40
2017-11-28T07:22:37.726Z,5.40
2017-11-28T07:23:42.228Z,5.40
2017-11-28T07:24:46.685Z,5.40
2017-11-28T07:25:51.268Z,5.50
2017-11-28T07:26:55.809Z,5.50
2017-11-28T07:28:00.634Z,5.50
2017-11-28T07:29:05.147Z,5.50
2017-11-28T07:30:09.665Z,5.40
2017-11-28T07:31:14.267Z,5.40
2017-11-28T07:32:18.751Z,5.40
2017-11-28T07:33:24.013Z,5.40
2017-11-28T07:34:28.546Z,5.40
2017-11-28T07:35:33.014Z,5.40
2017-11-28T07:36:38.559Z,5.40
2017-11-28T07:37:43.850Z,5.50
2017-11-28T07:38:48.356Z,5.50
2017-11-28T07:39:53.137Z,5.50
2017-11-28T07:40:57.623Z,5.50
2017-11-28T07:42:03.270Z,5.40
2017-11-28T07:43:08.965Z,5.50
2017-11-28T07:44:13.794Z,5.50
2017-11-28T07:45:18.233Z,5.40
2017-11-28T07:46:23.758Z,5.60
2017-11-28T07:47:29.023Z,5.50
2017-11-28T07:48:33.518Z,5.50
2017-11-28T07:49:38.018Z,5.60
2017-11-28T07:50:43.981Z,5.60
2017-11-28T07:51:48.604Z,5.60
2017-11-28T07:52:53.254Z,5.60
2017-11-28T07:53:57.768Z,5.60
2017-11-28T07:55:02.321Z,5.60
2017-11-28T07:56:07.581Z,5.70
2017-11-28T07:57:12.333Z,5.70
2017-11-28T07:58:16.971Z,5.70
2017-11-28T07:59:22.259Z,5.70
2017-11-28T08:00:26.720Z,5.70
2017-11-28T08:01:32.064Z,5.80
2017-11-28T08:02:36.556Z,5.80
2017-11-28T08:03:45.394Z,5.90
2017-11-28T08:04:49.811Z,5.80
2017-11-28T08:05:54.329Z,5.80
2017-11-28T08:06:59.626Z,5.90
2017-11-28T08:08:04.865Z,5.90
2017-11-28T08:09:09.340Z,5.90
2017-11-28T08:10:13.870Z,5.90
2017-11-28T08:11:18.557Z,5.90
2017-11-28T08:12:23.047Z,5.90
2017-11-28T08:13:28.230Z,6.00
2017-11-28T08:14:33.654Z,6.00
2017-11-28T08:15:38.253Z,6.00
2017-11-28T08:16:42.725Z,6.00
2017-11-28T08:17:47.177Z,6.00
2017-11-28T08:18:51.639Z,6.00
2017-11-28T08:19:56.130Z,6.00
2017-11-28T08:21:01.585Z,6.10
2017-11-28T08:22:06.189Z,6.00
2017-11-28T08:23:10.839Z,6.10
2017-11-28T08:24:15.455Z,6.10
2017-11-28T08:25:20.251Z,6.10
2017-11-28T08:26:24.918Z,6.10
2017-11-28T08:27:30.344Z,6.10
2017-11-28T08:28:34.940Z,6.10
2017-11-28T08:29:39.530Z,6.10
2017-11-28T08:30:44.984Z,6.10
2017-11-28T08:31:49.831Z,6.10
2017-11-28T08:32:55.255Z,6.20
2017-11-28T08:34:00.322Z,6.20
2017-11-28T08:35:04.927Z,6.20
2017-11-28T08:36:10.245Z,6.30
2017-11-28T08:37:15.785Z,6.30
2017-11-28T08:38:21.085Z,6.40
2017-11-28T08:39:25.624Z,6.40
2017-11-28T08:40:30.985Z,6.40
2017-11-28T08:41:36.015Z,6.40
2017-11-28T08:42:41.271Z,6.50
2017-11-28T08:43:45.859Z,6.50
2017-11-28T08:44:50.430Z,6.50
2017-11-28T08:45:55.010Z,6.60
2017-11-28T08:46:59.527Z,6.60
2017-11-28T08:48:04.299Z,6.70
2017-11-28T08:49:08.917Z,6.80
2017-11-28T08:50:13.570Z,6.80
2017-11-28T08:51:18.136Z,6.80
2017-11-28T08:52:23.590Z,6.80
2017-11-28T08:53:28.403Z,6.80
2017-11-28T08:54:32.886Z,6.90
2017-11-28T08:55:38.180Z,7.00
2017-11-28T08:56:43.178Z,7.00
2017-11-28T08:57:47.654Z,7.10
2017-11-28T08:58:53.469Z,7.20
2017-11-28T08:59:57.923Z,7.20
2017-11-28T09:01:02.905Z,7.20
2017-11-28T09:02:07.370Z,7.20
2017-11-28T09:03:11.811Z,7.30
2017-11-28T09:04:16.325Z,7.30
2017-11-28T09:05:20.814Z,7.40
2017-11-28T09:06:25.334Z,7.40
2017-11-28T09:07:29.919Z,7.40
2017-11-28T09:08:34.321Z,7.40
2017-11-28T09:09:39.992Z,7.60
2017-11-28T09:10:44.599Z,7.50
2017-11-28T09:11:49.116Z,7.60
2017-11-28T09:12:53.602Z,7.70
2017-11-28T09:13:58.070Z,7.70
2017-11-28T09:15:03.165Z,7.70
2017-11-28T09:16:07.685Z,7.80
2017-11-28T09:17:12.188Z,7.90
2017-11-28T09:18:16.783Z,8.00
2017-11-28T09:19:21.310Z,8.10
2017-11-28T09:20:26.052Z,8.20
2017-11-28T09:21:30.556Z,8.30
2017-11-28T09:22:35.101Z,8.40
2017-11-28T09:23:39.650Z,8.40
2017-11-28T09:24:44.152Z,8.50
2017-11-28T09:25:48.655Z,8.60
2017-11-28T09:26:53.825Z,8.60
2017-11-28T09:27:58.331Z,8.60
2017-11-28T09:29:03.030Z,8.50
2017-11-28T09:30:07.586Z,8.50
2017-11-28T09:31:12.526Z,8.40
2017-11-28T09:32:17.422Z,8.40
2017-11-28T09:33:21.900Z,8.30
2017-11-28T09:34:26.383Z,8.20
2017-11-28T09:35:31.604Z,8.00
2017-11-28T09:36:36.283Z,8.00
2017-11-28T09:37:40.811Z,7.90
2017-11-28T09:38:45.335Z,7.80
2017-11-28T09:39:49.866Z,7.80
2017-11-28T09:40:55.385Z,7.60
2017-11-28T09:41:59.815Z,7.60
2017-11-28T09:43:05.015Z,7.60
2017-11-28T09:44:09.556Z,7.60
2017-11-28T09:45:14.862Z,7.60
2017-11-28T09:46:19.371Z,7.50
2017-11-28T09:47:23.865Z,7.50
2017-11-28T09:48:28.326Z,7.60
2017-11-28T09:49:33.163Z,7.60
2017-11-28T09:50:37.626Z,7.60
2017-11-28T09:51:42.093Z,7.60
2017-11-28T09:52:46.610Z,7.70
2017-11-28T09:53:51.104Z,7.70
2017-11-28T09:54:55.669Z,7.70
2017-11-28T09:56:00.105Z,7.70
2017-11-28T09:57:05.262Z,7.80
2017-11-28T09:58:09.689Z,7.80
2017-11-28T09:59:14.228Z,7.90
2017-11-28T10:00:18.767Z,8.10
2017-11-28T10:01:24.327Z,8.10
2017-11-28T10:02:28.682Z,8.10
2017-11-28T10:03:33.241Z,8.10
2017-11-28T10:04:37.970Z,8.10
2017-11-28T10:05:42.554Z,8.00
2017-11-28T10:06:47.794Z,8.10
2017-11-28T10:07:52.283Z,8.10
2017-11-28T10:08:57.530Z,8.10
2017-11-28T10:10:02.765Z,8.20
2017-11-28T10:11:07.217Z,8.10
2017-11-28T10:12:11.643Z,8.20
2017-11-28T10:13:16.191Z,8.20
2017-11-28T10:14:20.616Z,8.20
2017-11-28T10:15:25.538Z,8.40
2017-11-28T10:16:30.184Z,8.50
2017-11-28T10:17:34.871Z,8.40
2017-11-28T10:18:39.242Z,8.40
2017-11-28T10:19:44.450Z,8.40
2017-11-28T10:20:48.806Z,8.30
2017-11-28T10:21:53.218Z,8.30
2017-11-28T10:22:57.658Z,8.20
2017-11-28T10:24:02.064Z,8.30
2017-11-28T10:25:06.552Z,8.40
2017-11-28T10:26:11.027Z,8.50
2017-11-28T10:27:15.575Z,8.60
2017-11-28T10:28:20.278Z,8.60
2017-11-28T10:29:25.433Z,8.60
2017-11-28T10:30:29.931Z,8.60
2017-11-28T10:31:34.377Z,8.60
2017-11-28T10:32:38.845Z,8.20
2017-11-28T10:33:43.574Z,8.20
2017-11-28T10:34:48.038Z,8.30
2017-11-28T10:35:52.485Z,8.20
2017-11-28T10:36:56.971Z,8.10
2017-11-28T10:38:01.672Z,8.10
2017-11-28T10:39:06.562Z,8.10
2017-11-28T10:40:11.345Z,8.00
2017-11-28T10:41:16.788Z,8.10
2017-11-28T10:42:23.351Z,8.10
2017-11-28T10:43:27.844Z,8.20
2017-11-28T10:44:33.134Z,8.10
2017-11-28T10:45:37.618Z,8.10
2017-11-28T10:46:42.178Z,8.10
2017-11-28T10:47:46.733Z,8.10
2017-11-28T10:48:51.275Z,8.20
2017-11-28T10:49:55.709Z,8.30
2017-11-28T10:51:00.510Z,8.40
2017-11-28T10:52:04.963Z,8.40
2017-11-28T10:53:10.275Z,8.50
2017-11-28T10:54:14.764Z,8.50
2017-11-28T10:55:19.464Z,8.50
2017-11-28T10:56:23.925Z,8.30
2017-11-28T10:57:29.210Z,8.20
2017-11-28T10:58:33.666Z,8.20
2017-11-28T10:59:38.862Z,8.30
2017-11-28T11:00:43.363Z,8.20
2017-11-28T11:01:48.128Z,8.30
2017-11-28T11:02:53.308Z,8.50
2017-11-28T11:03:57.938Z,8.50
2017-11-28T11:05:02.326Z,8.50
2017-11-28T11:06:06.866Z,8.50
2017-11-28T11:07:11.616Z,8.70
2017-11-28T11:08:16.197Z,8.90
2017-11-28T11:09:20.726Z,9.10
2017-11-28T11:10:25.214Z,9.20
2017-11-28T11:11:29.766Z,9.10
2017-11-28T11:12:35.058Z,9.20
2017-11-28T11:13:39.840Z,9.20
2017-11-28T11:14:44.326Z,9.20
2017-11-28T11:15:49.542Z,9.10
2017-11-28T11:16:54.769Z,9.00
2017-11-28T11:17:59.913Z,8.90
2017-11-28T11:19:05.085Z,8.90
2017-11-28T11:20:09.720Z,8.80
2017-11-28T11:21:14.270Z,8.80
2017-11-28T11:22:18.753Z,8.80
2017-11-28T11:23:23.236Z,8.80
2017-11-28T11:24:27.723Z,8.80
2017-11-28T11:25:32.187Z,8.80
2017-11-28T11:26:37.347Z,9.00
2017-11-28T11:27:42.768Z,9.00
2017-11-28T11:28:51.050Z,8.90
2017-11-28T11:30:05.171Z,8.90
2017-11-28T11:31:09.713Z,8.90
2017-11-28T11:32:15.044Z,8.90
2017-11-28T11:33:20.319Z,8.90
2017-11-28T11:34:24.814Z,8.90
2017-11-28T11:35:30.057Z,9.00
2017-11-28T11:36:34.445Z,8.90
2017-11-28T11:37:38.879Z,9.00
2017-11-28T11:38:43.375Z,8.90
2017-11-28T11:39:47.828Z,8.90
2017-11-28T11:40:52.473Z,8.90
2017-11-28T11:41:57.630Z,8.70
2017-11-28T11:43:02.111Z,8.70
2017-11-28T11:44:07.369Z,8.60
2017-11-28T11:45:11.837Z,8.60
2017-11-28T11:46:16.382Z,8.60
2017-11-28T11:47:20.897Z,8.50
2017-11-28T11:48:25.707Z,8.50
2017-11-28T11:49:30.341Z,8.50
2017-11-28T11:50:34.828Z,8.60
2017-11-28T11:51:39.389Z,8.60
2017-11-28T11:52:43.871Z,8.60
2017-11-28T11:53:48.369Z,8.70
2017-11-28T11:54:52.815Z,8.50
2017-11-28T11:55:57.957Z,8.40
2017-11-28T11:57:02.696Z,8.40
2017-11-28T11:58:07.185Z,8.30
2017-11-28T11:59:11.882Z,8.40
2017-11-28T12:00:16.458Z,8.40
2017-11-28T12:01:20.911Z,8.50
2017-11-28T12:02:25.478Z,8.20
2017-11-28T12:03:30.749Z,8.20
2017-11-28T12:04:35.751Z,8.20
2017-11-28T12:05:40.133Z,8.30
2017-11-28T12:06:45.490Z,8.30
2017-11-28T12:07:49.980Z,8.30
2017-11-28T12:08:55.975Z,8.30
2017-11-28T12:10:00.434Z,8.20
2017-11-28T12:11:05.533Z,8.40
2017-11-28T12:12:10.304Z,8.40
2017-11-28T12:13:14.826Z,8.50
2017-11-28T12:14:19.360Z,8.50
2017-11-28T12:15:23.911Z,8.60
2017-11-28T12:16:29.345Z,8.50
2017-11-28T12:17:34.801Z,8.60
2017-11-28T12:18:39.518Z,8.60
2017-11-28T12:19:44.033Z,8.60
2017-11-28T12:20:48.432Z,8.60
2017-11-28T12:21:53.182Z,8.60
2017-11-28T12:22:57.715Z,8.70
2017-11-28T12:24:02.270Z,8.60
2017-11-28T12:25:07.552Z,8.60
2017-11-28T12:26:12.879Z,8.60
2017-11-28T12:27:17.481Z,8.60
2017-11-28T12:28:22.031Z,8.60
2017-11-28T12:29:26.721Z,8.60
2017-11-28T12:30:31.939Z,8.50
2017-11-28T12:31:37.340Z,8.60
2017-11-28T12:32:41.890Z,8.60
2017-11-28T12:33:46.466Z,8.50
2017-11-28T12:34:51.263Z,8.50
2017-11-28T12:35:56.461Z,8.60
2017-11-28T12:37:01.085Z,8.60
2017-11-28T12:38:05.773Z,8.70
2017-11-28T12:39:10.815Z,8.70
2017-11-28T12:40:15.323Z,8.80
2017-11-28T12:41:19.764Z,8.80
2017-11-28T12:42:24.199Z,8.80
2017-11-28T12:43:28.602Z,8.80
2017-11-28T12:44:33.913Z,8.90
2017-11-28T12:45:39.387Z,8.90
2017-11-28T12:46:43.828Z,8.90
2017-11-28T12:47:49.114Z,9.10
2017-11-28T12:48:53.592Z,9.10
2017-11-28T12:49:58.246Z,9.30
2017-11-28T12:51:03.088Z,9.40
2017-11-28T12:52:08.419Z,9.60
2017-11-28T12:53:13.102Z,9.60
2017-11-28T12:54:20.072Z,9.70
2017-11-28T12:55:25.540Z,9.60
2017-11-28T12:56:30.454Z,9.60
2017-11-28T12:57:34.952Z,9.60
2017-11-28T12:58:39.448Z,9.50
2017-11-28T12:59:43.871Z,9.40
2017-11-28T13:00:48.327Z,9.40
2017-11-28T13:01:52.928Z,9.40
2017-11-28T13:02:57.462Z,9.50
2017-11-28T13:04:01.915Z,9.40
2017-11-28T13:05:06.413Z,9.40
2017-11-28T13:06:12.046Z,9.50
2017-11-28T13:07:17.528Z,9.50
2017-11-28T13:08:22.022Z,9.40
2017-11-28T13:09:26.542Z,9.60
2017-11-28T13:10:31.009Z,9.60
2017-11-28T13:11:36.217Z,9.60
2017-11-28T13:12:42.124Z,9.60
2017-11-28T13:13:46.604Z,9.60
2017-11-28T13:14:51.751Z,9.70
2017-11-28T13:15:56.347Z,9.70
2017-11-28T13:17:01.698Z,9.80
2017-11-28T13:18:06.463Z,9.80
2017-11-28T13:19:10.939Z,9.90
2017-11-28T13:20:15.346Z,9.90
2017-11-28T13:21:19.853Z,9.90
2017-11-28T13:22:25.190Z,9.60
2017-11-28T13:23:30.125Z,9.60
2017-11-28T13:24:34.619Z,9.70
2017-11-28T13:25:39.188Z,9.70
2017-11-28T13:26:44.830Z,9.80
2017-11-28T13:27:50.088Z,9.80
2017-11-28T13:28:54.588Z,9.70
2017-11-28T13:29:59.825Z,9.80
2017-11-28T13:31:04.323Z,9.80
2017-11-28T13:32:09.524Z,9.80
2017-11-28T13:33:14.332Z,9.80
2017-11-28T13:34:19.525Z,9.90
2017-11-28T13:35:24.019Z,9.80
2017-11-28T13:36:28.790Z,9.80
2017-11-28T13:37:33.298Z,9.80
2017-11-28T13:38:37.803Z,9.70
2017-11-28T13:39:42.643Z,9.60
2017-11-28T13:40:47.086Z,9.50
2017-11-28T13:41:51.596Z,9.50
2017-11-28T13:42:57.283Z,9.30
2017-11-28T13:44:01.747Z,9.30
2017-11-28T13:45:06.908Z,9.20
2017-11-28T13:46:11.366Z,9.20
2017-11-28T13:47:15.861Z,9.20
2017-11-28T13:48:20.535Z,9.10
2017-11-28T13:49:24.977Z,9.20
2017-11-28T13:50:29.710Z,9.10
2017-11-28T13:51:34.297Z,9.10
2017-11-28T13:52:38.779Z,9.10
2017-11-28T13:53:43.377Z,9.00
2017-11-28T13:54:48.621Z,9.00
2017-11-28T13:55:53.413Z,9.00
2017-11-28T13:56:58.867Z,8.90
2017-11-28T13:58:03.295Z,8.90
2017-11-28T13:59:07.791Z,8.80
2017-11-28T14:00:12.907Z,8.60
2017-11-28T14:01:17.278Z,8.50
2017-11-28T14:02:21.686Z,8.50
2017-11-28T14:03:26.494Z,8.50
2017-11-28T14:04:30.925Z,8.50
2017-11-28T14:05:35.324Z,8.50
2017-11-28T14:06:39.713Z,8.40
2017-11-28T14:07:44.465Z,8.40
2017-11-28T14:08:48.890Z,8.40
2017-11-28T14:09:54.248Z,8.40
2017-11-28T14:10:58.666Z,8.40
2017-11-28T14:12:03.058Z,8.30
2017-11-28T14:13:07.554Z,8.30
2017-11-28T14:14:12.754Z,8.20
2017-11-28T14:15:17.246Z,8.20
2017-11-28T14:16:21.827Z,8.20
2017-11-28T14:17:26.306Z,8.10
2017-11-28T14:18:30.935Z,8.10
2017-11-28T14:19:36.259Z,8.20
2017-11-28T14:20:41.763Z,8.20
2017-11-28T14:21:47.277Z,8.20
2017-11-28T14:22:51.953Z,8.10
2017-11-28T14:24:01.342Z,8.20